Time;durP1;ratioP1;P1;durP2;ratioP2;P2;SDS_P1;SDS_P2;PMS_P1;PMS_P2;Temp;Humidity;BMP_temperature;BMP_pressure;BME280_temperature;BME280_humidity;BME280_pressure;Samples;Min_cycle;Max_cycle;Signal;HPM_P1;HPM_P2
2023/09/06 00:01:29;;;;;;;15.30;10.68;;;19.30;99.90;;;;;;5095609;28;20117;-66
2023/09/06 00:03:56;;;;;;;13.15;10.77;;;19.30;99.90;;;;;;5077506;28;20087;-67
2023/09/06 00:06:23;;;;;;;14.45;10.77;;;19.30;99.90;;;;;;5076590;27;20087;-66
2023/09/06 00:08:52;;;;;;;13.30;10.63;;;19.30;99.90;;;;;;5077708;28;20048;-65
2023/09/06 00:11:19;;;;;;;14.85;10.68;;;19.30;99.90;;;;;;5096077;27;20044;-68
2023/09/06 00:13:46;;;;;;;14.50;10.98;;;19.20;99.90;;;;;;5077646;28;20048;-66
2023/09/06 00:16:15;;;;;;;15.05;11.13;;;19.20;99.90;;;;;;5128903;27;20050;-65
2023/09/06 00:18:42;;;;;;;16.40;11.30;;;19.20;99.90;;;;;;5114139;27;20053;-65
2023/09/06 00:21:09;;;;;;;14.02;11.43;;;19.20;99.90;;;;;;5114797;27;20047;-66
2023/09/06 00:23:35;;;;;;;14.90;11.38;;;19.20;99.90;;;;;;5114172;27;20116;-66
2023/09/06 00:26:04;;;;;;;16.05;12.07;;;19.20;99.90;;;;;;5132358;27;20408;-65
2023/09/06 00:28:31;;;;;;;15.88;11.25;;;19.20;99.90;;;;;;5114371;27;20050;-65
2023/09/06 00:30:58;;;;;;;12.95;10.23;;;19.20;99.90;;;;;;5132084;27;20514;-66
2023/09/06 00:33:27;;;;;;;13.02;11.32;;;19.20;99.90;;;;;;5132901;27;20043;-65
2023/09/06 00:35:55;;;;;;;13.57;11.02;;;19.10;99.90;;;;;;5114099;27;20054;-65
2023/09/06 00:38:21;;;;;;;13.73;11.57;;;19.10;99.90;;;;;;5132298;27;20092;-66
2023/09/06 00:40:51;;;;;;;16.05;12.32;;;19.10;99.90;;;;;;5114224;27;20490;-66
2023/09/06 00:43:19;;;;;;;14.80;11.80;;;19.10;99.90;;;;;;5113947;27;20080;-66
2023/09/06 00:45:50;;;;;;;17.08;11.45;;;19.10;99.90;;;;;;5113797;27;20043;-66
2023/09/06 00:48:21;;;;;;;14.75;11.55;;;19.10;99.90;;;;;;5132692;27;20039;-65
2023/09/06 00:50:50;;;;;;;15.43;11.40;;;19.00;99.90;;;;;;5114051;27;20483;-66
2023/09/06 00:53:18;;;;;;;13.15;10.93;;;19.00;99.90;;;;;;5132050;27;20039;-65
2023/09/06 00:55:45;;;;;;;14.45;11.35;;;19.00;99.90;;;;;;5110794;28;20441;-65
2023/09/06 00:58:15;;;;;;;13.10;11.30;;;19.00;99.90;;;;;;5076161;27;20452;-65
2023/09/06 01:00:44;;;;;;;14.05;11.13;;;18.90;99.90;;;;;;5076513;27;20108;-65
2023/09/06 01:03:11;;;;;;;12.57;10.10;;;18.90;99.90;;;;;;5075692;28;20067;-67
2023/09/06 01:05:42;;;;;;;13.35;11.00;;;18.90;99.90;;;;;;5093610;27;20403;-65
2023/09/06 01:08:14;;;;;;;13.63;9.90;;;18.90;99.90;;;;;;5092664;28;20069;-66
2023/09/06 01:10:41;;;;;;;14.07;11.07;;;18.90;99.90;;;;;;5096029;27;20044;-65
2023/09/06 01:13:08;;;;;;;12.55;10.38;;;18.90;99.90;;;;;;5075793;28;20040;-65
2023/09/06 01:15:35;;;;;;;11.57;9.95;;;18.90;99.90;;;;;;5109819;27;20425;-65
2023/09/06 01:18:07;;;;;;;13.30;10.30;;;18.90;99.90;;;;;;5113696;27;20407;-66
2023/09/06 01:20:42;;;;;;;12.88;10.18;;;18.80;99.90;;;;;;5112464;28;20062;-66
2023/09/06 01:23:24;;;;;;;12.02;10.07;;;18.80;99.90;;;;;;5111648;28;20047;-66
2023/09/06 01:25:52;;;;;;;12.07;9.77;;;18.80;99.90;;;;;;5093386;28;20112;-66
2023/09/06 01:28:20;;;;;;;14.05;10.55;;;18.70;99.90;;;;;;5075825;28;20123;-65
2023/09/06 01:30:47;;;;;;;13.88;10.82;;;18.70;99.90;;;;;;5093544;28;20044;-65
2023/09/06 01:33:16;;;;;;;13.43;9.88;;;18.70;99.90;;;;;;5093129;28;20044;-66
2023/09/06 01:35:43;;;;;;;15.18;10.32;;;18.70;99.90;;;;;;5075710;28;20052;-67
2023/09/06 01:38:11;;;;;;;13.80;10.48;;;18.70;99.90;;;;;;5093591;28;20044;-67
2023/09/06 01:40:40;;;;;;;14.57;11.15;;;18.60;99.90;;;;;;5075850;28;20075;-66
2023/09/06 01:43:08;;;;;;;14.20;10.82;;;18.60;99.90;;;;;;5092386;28;20498;-66
2023/09/06 01:45:35;;;;;;;14.07;11.35;;;18.50;99.90;;;;;;5075330;28;20052;-65
2023/09/06 01:48:03;;;;;;;12.95;10.80;;;18.50;99.90;;;;;;5076283;28;20492;-66
2023/09/06 01:50:30;;;;;;;14.25;11.45;;;18.50;99.90;;;;;;5091661;28;20055;-66
2023/09/06 01:52:57;;;;;;;14.38;10.95;;;18.40;99.90;;;;;;5094078;28;20058;-66
2023/09/06 01:55:24;;;;;;;14.77;10.68;;;18.40;99.90;;;;;;5100442;28;20048;-65
2023/09/06 01:57:53;;;;;;;14.85;11.50;;;18.30;99.90;;;;;;5089954;28;20052;-66
2023/09/06 02:00:22;;;;;;;13.23;11.82;;;18.30;99.90;;;;;;5104791;28;20466;-65
2023/09/06 02:02:50;;;;;;;16.60;12.03;;;18.30;99.90;;;;;;5083612;28;20137;-65
2023/09/06 02:05:17;;;;;;;14.82;10.90;;;18.30;99.90;;;;;;5088445;28;20059;-68
2023/09/06 02:07:45;;;;;;;14.15;11.13;;;18.20;99.90;;;;;;5090617;28;20054;-70
2023/09/06 02:10:12;;;;;;;14.43;11.52;;;18.20;99.90;;;;;;5109138;28;20046;-65
2023/09/06 02:12:39;;;;;;;12.68;10.52;;;18.20;99.90;;;;;;5082013;28;20058;-66
2023/09/06 02:15:13;;;;;;;14.18;11.45;;;18.20;99.90;;;;;;5093060;28;20040;-68
2023/09/06 02:17:42;;;;;;;12.05;10.75;;;18.20;99.90;;;;;;5106613;28;20104;-66
2023/09/06 02:20:17;;;;;;;13.13;11.55;;;18.10;99.90;;;;;;5111093;28;20047;-68
2023/09/06 02:22:44;;;;;;;13.85;11.18;;;18.10;99.90;;;;;;5090673;28;20142;-68
2023/09/06 02:25:13;;;;;;;15.45;10.75;;;18.10;99.90;;;;;;5090829;28;20054;-70
2023/09/06 02:27:40;;;;;;;14.02;11.48;;;18.10;99.90;;;;;;5089494;28;20499;-68
2023/09/06 02:30:10;;;;;;;12.88;10.57;;;18.10;99.90;;;;;;5087998;28;20071;-66
2023/09/06 02:32:37;;;;;;;13.05;10.23;;;18.10;99.90;;;;;;5109499;28;20558;-68
2023/09/06 02:35:06;;;;;;;14.50;11.18;;;18.00;99.90;;;;;;5081583;28;20048;-68
2023/09/06 02:37:33;;;;;;;14.40;10.63;;;18.00;99.90;;;;;;5109955;27;20500;-68
2023/09/06 02:39:59;;;;;;;13.20;11.48;;;18.00;99.90;;;;;;5109517;28;20434;-63
2023/09/06 02:42:27;;;;;;;13.57;11.05;;;18.00;99.90;;;;;;5094169;28;20503;-65
2023/09/06 02:44:54;;;;;;;13.82;11.07;;;17.90;99.90;;;;;;5095243;28;20133;-68
2023/09/06 02:47:28;;;;;;;13.00;10.93;;;17.90;99.90;;;;;;5095020;28;20043;-68
2023/09/06 02:49:56;;;;;;;13.75;10.57;;;17.90;99.90;;;;;;5092571;28;20113;-67
2023/09/06 02:52:35;;;;;;;12.43;10.10;;;17.90;99.90;;;;;;5095374;28;20051;-67
2023/09/06 02:55:05;;;;;;;11.75;10.00;;;17.90;99.90;;;;;;5106330;27;20043;-67
2023/09/06 02:57:34;;;;;;;11.70;9.85;;;17.90;99.90;;;;;;5096139;28;20051;-66
2023/09/06 03:00:18;;;;;;;11.13;9.55;;;17.80;99.90;;;;;;5093288;28;20047;-68
2023/09/06 03:02:47;;;;;;;12.10;10.30;;;17.80;99.90;;;;;;5095450;28;20047;-68
2023/09/06 03:05:17;;;;;;;11.93;10.00;;;17.80;99.90;;;;;;5108902;27;20541;-69
2023/09/06 03:07:48;;;;;;;12.43;9.25;;;17.80;99.90;;;;;;5100679;27;20047;-67
2023/09/06 03:10:16;;;;;;;11.73;9.73;;;17.80;99.90;;;;;;5093779;28;20047;-66
2023/09/06 03:12:43;;;;;;;15.18;10.05;;;17.70;99.90;;;;;;5076505;28;20138;-65
2023/09/06 03:15:12;;;;;;;11.32;9.27;;;17.70;99.90;;;;;;5111101;28;20036;-65
2023/09/06 03:17:40;;;;;;;10.30;8.50;;;17.70;99.90;;;;;;5096742;28;20619;-65
2023/09/06 03:20:19;;;;;;;10.35;9.00;;;17.70;99.90;;;;;;5096868;27;20048;-65
2023/09/06 03:22:47;;;;;;;12.63;8.68;;;17.70;99.90;;;;;;5094839;27;20088;-65
2023/09/06 03:25:15;;;;;;;11.10;8.80;;;17.60;99.90;;;;;;5095344;27;20066;-66
2023/09/06 03:27:43;;;;;;;10.63;8.10;;;17.60;99.90;;;;;;5094848;27;20492;-65
2023/09/06 03:30:14;;;;;;;11.70;8.82;;;17.50;99.90;;;;;;5079271;28;20089;-65
2023/09/06 03:32:43;;;;;;;11.00;9.02;;;17.50;99.90;;;;;;5096188;28;20039;-65
2023/09/06 03:35:16;;;;;;;16.00;8.80;;;17.50;99.90;;;;;;5094816;28;20391;-65
2023/09/06 03:37:43;;;;;;;10.60;8.50;;;17.40;99.90;;;;;;5096526;28;20055;-65
2023/09/06 03:40:35;;;;;;;10.82;7.93;;;17.40;99.90;;;;;;5094200;28;20047;-66
2023/09/06 03:43:05;;;;;;;9.95;8.43;;;17.40;99.90;;;;;;5112477;27;20047;-66
2023/09/06 03:45:32;;;;;;;9.17;7.43;;;17.40;99.90;;;;;;5115203;27;20039;-67
2023/09/06 03:48:00;;;;;;;9.57;6.65;;;17.30;99.90;;;;;;5121702;27;20047;-66
2023/09/06 03:50:28;;;;;;;9.68;7.00;;;17.40;99.90;;;;;;5107981;28;20147;-67
2023/09/06 03:52:55;;;;;;;9.65;7.78;;;17.40;99.90;;;;;;5092048;27;20053;-67
2023/09/06 03:55:24;;;;;;;8.65;6.95;;;17.50;99.90;;;;;;5106983;28;20123;-66
2023/09/06 03:57:52;;;;;;;10.27;6.75;;;17.50;99.90;;;;;;5092101;28;20134;-66
2023/09/06 04:00:26;;;;;;;10.70;6.35;;;17.60;99.90;;;;;;5095025;28;20472;-66
2023/09/06 04:02:54;;;;;;;8.15;6.50;;;17.60;99.90;;;;;;5090066;28;20055;-66
2023/09/06 04:05:26;;;;;;;8.73;7.38;;;17.60;99.90;;;;;;5092076;28;20124;-66
2023/09/06 04:07:57;;;;;;;11.35;7.10;;;17.60;99.90;;;;;;5109831;28;20051;-66
2023/09/06 04:10:24;;;;;;;12.00;7.13;;;17.70;99.90;;;;;;5092110;28;20043;-65
2023/09/06 04:12:53;;;;;;;8.93;6.50;;;17.70;99.90;;;;;;5112773;28;20055;-67
2023/09/06 04:15:22;;;;;;;7.68;6.80;;;17.60;99.90;;;;;;5089185;28;20150;-67
2023/09/06 04:17:58;;;;;;;8.35;6.93;;;17.60;99.90;;;;;;5090107;28;20052;-67
2023/09/06 04:20:27;;;;;;;7.80;6.60;;;17.60;99.90;;;;;;5088317;28;20127;-67
2023/09/06 04:22:56;;;;;;;8.70;6.50;;;17.50;99.90;;;;;;5091186;28;20063;-66
2023/09/06 04:25:23;;;;;;;8.75;6.60;;;17.50;99.90;;;;;;5091742;28;20071;-67
2023/09/06 04:27:54;;;;;;;7.75;6.40;;;17.50;99.90;;;;;;5110775;27;20441;-65
2023/09/06 04:30:24;;;;;;;9.35;7.43;;;17.50;99.90;;;;;;5089344;28;20128;-66
2023/09/06 04:32:52;;;;;;;8.82;6.75;;;17.50;99.90;;;;;;5091044;28;20056;-66
2023/09/06 04:35:19;;;;;;;9.73;7.50;;;17.50;99.90;;;;;;5091296;28;20043;-67
2023/09/06 04:37:46;;;;;;;13.45;7.78;;;17.50;99.90;;;;;;5105035;28;20496;-66
2023/09/06 04:40:17;;;;;;;10.10;6.95;;;17.40;99.90;;;;;;5106958;28;20043;-66
2023/09/06 04:42:44;;;;;;;9.88;7.65;;;17.30;99.90;;;;;;5110317;27;20043;-66
2023/09/06 04:45:12;;;;;;;8.60;7.53;;;17.20;99.90;;;;;;5089513;28;20044;-66
2023/09/06 04:47:43;;;;;;;10.63;7.88;;;17.20;99.90;;;;;;5093982;28;20479;-65
2023/09/06 04:50:12;;;;;;;11.23;7.80;;;17.20;99.90;;;;;;5108158;27;20096;-66
2023/09/06 04:52:44;;;;;;;9.63;8.13;;;17.10;99.90;;;;;;5099594;27;20109;-66
2023/09/06 04:55:12;;;;;;;10.25;7.78;;;17.00;99.90;;;;;;5090610;28;20048;-66
2023/09/06 04:57:41;;;;;;;11.70;8.43;;;17.00;99.90;;;;;;5089908;28;20058;-63
2023/09/06 05:00:16;;;;;;;9.57;8.13;;;17.00;99.90;;;;;;5089655;28;20127;-63
2023/09/06 05:02:45;;;;;;;9.57;8.55;;;17.00;99.90;;;;;;5089394;27;20079;-64
2023/09/06 05:05:13;;;;;;;10.60;7.75;;;17.00;99.90;;;;;;5103402;28;20047;-63
2023/09/06 05:07:40;;;;;;;10.02;8.27;;;17.00;99.90;;;;;;5094018;28;20437;-62
2023/09/06 05:10:09;;;;;;;12.98;8.43;;;17.00;99.90;;;;;;5100970;28;20048;-64
2023/09/06 05:12:36;;;;;;;11.90;8.02;;;16.90;99.90;;;;;;5107010;28;20044;-66
2023/09/06 05:15:06;;;;;;;9.82;7.43;;;16.90;99.90;;;;;;5104043;28;20113;-64
2023/09/06 05:17:33;;;;;;;10.48;7.90;;;17.00;99.90;;;;;;5091399;28;20047;-65
2023/09/06 05:20:25;;;;;;;10.10;8.18;;;17.00;99.90;;;;;;5108602;28;20047;-63
2023/09/06 05:22:52;;;;;;;15.70;8.65;;;17.00;99.90;;;;;;5110719;28;20487;-63
2023/09/06 05:25:19;;;;;;;10.35;7.80;;;17.00;99.90;;;;;;5091749;28;20055;-63
2023/09/06 05:27:46;;;;;;;9.65;7.45;;;17.00;99.90;;;;;;5090540;28;20043;-64
2023/09/06 05:30:15;;;;;;;9.20;8.20;;;17.00;99.90;;;;;;5094870;28;20096;-65
2023/09/06 05:32:42;;;;;;;9.45;7.55;;;17.00;99.90;;;;;;5109273;28;20062;-63
2023/09/06 05:35:10;;;;;;;9.48;7.60;;;17.10;99.90;;;;;;5105189;28;20112;-63
2023/09/06 05:37:38;;;;;;;8.48;7.13;;;17.10;99.90;;;;;;5092002;28;20059;-65
2023/09/06 05:40:06;;;;;;;10.05;7.68;;;17.10;99.90;;;;;;5089823;28;20063;-66
2023/09/06 05:42:33;;;;;;;9.80;8.40;;;17.20;99.90;;;;;;5105567;28;20070;-65
2023/09/06 05:45:00;;;;;;;14.88;8.25;;;17.20;99.90;;;;;;5106685;28;20487;-64
2023/09/06 05:47:29;;;;;;;8.48;7.45;;;17.20;99.90;;;;;;5090210;28;20055;-64
2023/09/06 05:49:57;;;;;;;10.35;8.07;;;17.30;99.90;;;;;;5090226;28;20056;-66
2023/09/06 05:52:24;;;;;;;9.98;7.32;;;17.30;99.90;;;;;;5106208;28;20093;-65
2023/09/06 05:54:51;;;;;;;8.35;7.18;;;17.40;99.90;;;;;;5091020;28;20079;-64
2023/09/06 05:57:19;;;;;;;9.10;6.82;;;17.40;99.90;;;;;;5110966;28;20054;-63
2023/09/06 05:59:46;;;;;;;7.85;6.63;;;17.40;99.90;;;;;;5075190;28;20060;-64
2023/09/06 06:02:14;;;;;;;10.30;7.45;;;17.40;99.90;;;;;;5092519;28;20105;-63
2023/09/06 06:04:45;;;;;;;11.20;6.85;;;17.50;99.90;;;;;;5075861;28;20407;-63
2023/09/06 06:07:13;;;;;;;10.27;6.43;;;17.60;99.90;;;;;;5079133;28;20043;-63
2023/09/06 06:09:40;;;;;;;8.57;6.32;;;17.60;99.90;;;;;;5107205;28;20086;-63
2023/09/06 06:12:07;;;;;;;7.53;6.18;;;17.70;99.90;;;;;;5105443;27;20055;-63
2023/09/06 06:14:36;;;;;;;9.43;6.47;;;17.80;99.90;;;;;;5091917;27;20043;-64
2023/09/06 06:17:05;;;;;;;7.50;5.93;;;17.90;99.90;;;;;;5113589;28;20083;-63
2023/09/06 06:19:32;;;;;;;10.80;6.82;;;18.00;99.90;;;;;;5115753;28;20079;-64
2023/09/06 06:22:03;;;;;;;8.68;6.30;;;18.30;99.90;;;;;;5132996;27;20487;-64
2023/09/06 06:24:31;;;;;;;10.15;5.50;;;19.10;99.90;;;;;;5113500;28;20048;-64
2023/09/06 06:26:59;;;;;;;10.10;5.30;;;20.30;99.90;;;;;;5115471;28;20057;-64
2023/09/06 06:29:26;;;;;;;6.25;4.80;;;21.40;99.90;;;;;;5116479;27;20051;-64
2023/09/06 06:31:53;;;;;;;8.27;4.65;;;22.60;99.90;;;;;;5134250;27;20062;-64
2023/09/06 06:34:20;;;;;;;6.47;4.18;;;23.60;99.90;;;;;;5116681;27;20051;-64
2023/09/06 06:36:47;;;;;;;5.78;3.97;;;24.40;99.90;;;;;;5116043;27;20047;-65
2023/09/06 06:39:15;;;;;;;8.40;3.80;;;25.00;99.90;;;;;;5134968;27;20051;-64
2023/09/06 06:41:43;;;;;;;6.65;3.67;;;25.60;99.90;;;;;;5116430;27;20051;-65
2023/09/06 06:44:10;;;;;;;5.38;4.03;;;26.30;99.90;;;;;;5104703;28;20093;-65
2023/09/06 06:46:39;;;;;;;4.93;3.50;;;26.60;99.90;;;;;;5116115;27;20043;-65
2023/09/06 06:49:07;;;;;;;4.80;3.07;;;27.30;99.90;;;;;;5116290;27;20073;-65
2023/09/06 06:51:38;;;;;;;6.75;3.67;;;27.70;99.90;;;;;;5133711;27;20558;-65
2023/09/06 06:54:06;;;;;;;8.13;3.63;;;28.20;99.90;;;;;;5116536;27;20073;-65
2023/09/06 06:56:35;;;;;;;5.82;3.30;;;28.80;99.90;;;;;;5092271;28;20545;-65
2023/09/06 06:59:03;;;;;;;4.45;3.28;;;29.10;99.90;;;;;;5113935;28;20060;-66
2023/09/06 07:01:30;;;;;;;5.22;3.10;;;29.40;99.90;;;;;;5093926;28;20047;-66
2023/09/06 07:03:57;;;;;;;5.00;3.00;;;29.50;99.90;;;;;;5096082;28;20101;-65
2023/09/06 07:06:25;;;;;;;4.25;2.80;;;29.80;99.90;;;;;;5094390;28;20048;-65
2023/09/06 07:08:53;;;;;;;6.22;3.00;;;30.00;99.70;;;;;;5113375;28;20092;-64
2023/09/06 07:11:20;;;;;;;3.97;2.78;;;30.40;99.10;;;;;;5114776;28;20106;-65
2023/09/06 07:13:50;;;;;;;5.22;2.67;;;30.80;98.40;;;;;;5095856;28;20047;-66
2023/09/06 07:16:18;;;;;;;8.63;3.20;;;30.80;97.30;;;;;;5106968;27;20051;-65
2023/09/06 07:18:45;;;;;;;6.70;2.83;;;31.10;97.00;;;;;;5112368;28;20040;-65
2023/09/06 07:21:12;;;;;;;6.30;2.92;;;31.10;96.30;;;;;;5095252;27;20058;-65
2023/09/06 07:23:39;;;;;;;3.60;2.50;;;31.30;96.10;;;;;;5095207;27;20487;-65
2023/09/06 07:26:07;;;;;;;4.70;2.33;;;31.50;95.70;;;;;;5093449;28;20040;-65
2023/09/06 07:28:42;;;;;;;3.10;2.17;;;32.10;94.90;;;;;;5078101;28;20044;-65
2023/09/06 07:31:10;;;;;;;4.68;1.92;;;32.30;94.20;;;;;;5095351;27;20141;-65
2023/09/06 07:33:38;;;;;;;4.60;2.38;;;32.50;94.10;;;;;;5095608;28;20044;-65
2023/09/06 07:36:05;;;;;;;4.15;2.20;;;32.70;93.60;;;;;;5096336;28;20130;-66
2023/09/06 07:38:32;;;;;;;3.55;2.28;;;33.00;93.00;;;;;;5096335;28;20047;-65
2023/09/06 07:41:00;;;;;;;3.75;2.22;;;32.70;92.40;;;;;;5093508;28;20062;-65
2023/09/06 07:43:28;;;;;;;4.78;1.95;;;33.40;92.50;;;;;;5114125;28;20051;-65
2023/09/06 07:45:57;;;;;;;5.55;2.38;;;33.70;91.90;;;;;;5078495;28;20098;-66
2023/09/06 07:48:26;;;;;;;3.42;1.95;;;33.60;91.40;;;;;;5076835;28;20055;-66
2023/09/06 07:50:53;;;;;;;4.50;2.03;;;33.70;91.10;;;;;;5079994;28;20052;-65
2023/09/06 07:53:20;;;;;;;5.70;1.98;;;33.80;90.90;;;;;;5077156;28;20052;-65
2023/09/06 07:55:48;;;;;;;4.28;1.80;;;34.00;90.70;;;;;;5095647;27;20544;-65
2023/09/06 07:58:16;;;;;;;3.58;2.10;;;34.30;90.70;;;;;;5097177;28;20070;-65
2023/09/06 08:00:43;;;;;;;5.43;1.80;;;34.30;90.20;;;;;;5077902;28;20036;-66
2023/09/06 08:03:10;;;;;;;2.72;1.75;;;34.70;89.40;;;;;;5092733;28;20491;-66
2023/09/06 08:05:39;;;;;;;2.47;1.52;;;34.80;89.10;;;;;;5095289;28;20055;-66
2023/09/06 08:08:08;;;;;;;5.07;1.75;;;35.20;88.30;;;;;;5113251;28;20047;-66
2023/09/06 08:10:36;;;;;;;5.80;2.30;;;35.00;87.30;;;;;;5093795;28;20100;-66
2023/09/06 08:13:03;;;;;;;6.05;1.80;;;34.90;87.50;;;;;;5094888;28;20048;-66
2023/09/06 08:15:30;;;;;;;2.88;1.75;;;34.90;86.40;;;;;;5096420;27;20044;-67
2023/09/06 08:17:57;;;;;;;4.90;1.90;;;35.10;86.40;;;;;;5097521;27;20047;-68
2023/09/06 08:20:25;;;;;;;2.88;1.88;;;35.50;85.90;;;;;;5080397;28;20396;-67
2023/09/06 08:22:53;;;;;;;4.05;1.65;;;35.50;85.60;;;;;;5076738;28;20051;-65
2023/09/06 08:25:20;;;;;;;5.38;1.90;;;36.20;85.20;;;;;;5092888;28;20055;-66
2023/09/06 08:27:47;;;;;;;2.70;1.63;;;36.00;84.40;;;;;;5076896;28;20056;-67
2023/09/06 08:30:16;;;;;;;6.07;1.88;;;36.20;83.40;;;;;;5100314;27;20053;-65
2023/09/06 08:32:44;;;;;;;2.72;1.58;;;36.30;83.10;;;;;;5095009;28;20095;-65
2023/09/06 08:35:12;;;;;;;5.32;1.60;;;36.20;83.60;;;;;;5095672;27;20044;-66
2023/09/06 08:37:39;;;;;;;3.78;1.65;;;36.60;82.60;;;;;;5094286;28;20101;-67
2023/09/06 08:40:10;;;;;;;3.25;1.55;;;36.60;80.90;;;;;;5113046;28;20135;-67
2023/09/06 08:42:37;;;;;;;3.90;1.60;;;36.30;80.40;;;;;;5094728;27;20395;-65
2023/09/06 08:45:08;;;;;;;2.60;1.70;;;36.10;81.00;;;;;;5099555;28;20047;-67
2023/09/06 08:47:38;;;;;;;5.25;1.70;;;35.80;79.70;;;;;;5077427;28;20048;-67
2023/09/06 08:50:09;;;;;;;4.25;1.50;;;35.60;79.20;;;;;;5093953;27;20098;-65
2023/09/06 08:52:39;;;;;;;2.80;1.52;;;36.00;79.90;;;;;;5107830;28;20126;-66
2023/09/06 08:55:09;;;;;;;2.97;1.50;;;35.80;79.70;;;;;;5094527;28;20476;-66
2023/09/06 08:57:38;;;;;;;2.58;1.55;;;36.00;79.60;;;;;;5109650;28;20063;-66
2023/09/06 09:00:09;;;;;;;3.77;1.30;;;36.20;79.00;;;;;;5112768;28;20043;-66
2023/09/06 09:02:37;;;;;;;3.78;1.60;;;36.10;78.50;;;;;;5110770;28;20403;-66
2023/09/06 09:05:05;;;;;;;4.47;1.52;;;35.80;78.70;;;;;;5075111;28;20080;-65
2023/09/06 09:07:33;;;;;;;5.20;1.60;;;35.80;79.10;;;;;;5092872;28;20133;-67
2023/09/06 09:10:04;;;;;;;5.63;1.73;;;35.80;78.90;;;;;;5075128;28;20056;-66
2023/09/06 09:12:33;;;;;;;3.15;1.60;;;35.80;78.70;;;;;;5091807;28;20058;-66
2023/09/06 09:15:00;;;;;;;2.83;1.40;;;35.90;78.10;;;;;;5093516;28;20055;-66
2023/09/06 09:17:28;;;;;;;2.67;1.40;;;36.00;77.90;;;;;;5077884;28;20756;-66
2023/09/06 09:19:57;;;;;;;5.23;1.80;;;36.20;77.80;;;;;;5085682;28;20070;-66
2023/09/06 09:22:25;;;;;;;2.90;1.58;;;36.40;77.50;;;;;;5075808;28;20299;-66
2023/09/06 09:24:57;;;;;;;2.90;1.50;;;36.80;77.60;;;;;;5077871;28;20056;-67
2023/09/06 09:27:24;;;;;;;4.75;1.63;;;36.90;76.60;;;;;;5081476;28;20097;-66
2023/09/06 09:29:52;;;;;;;4.00;1.52;;;37.00;76.40;;;;;;5092368;28;20044;-66
2023/09/06 09:32:20;;;;;;;3.97;1.93;;;36.90;76.40;;;;;;5095279;28;20048;-67
2023/09/06 09:34:47;;;;;;;2.10;1.40;;;36.60;76.40;;;;;;5075601;28;20048;-66
2023/09/06 09:37:14;;;;;;;3.20;1.88;;;36.80;76.50;;;;;;5093320;28;20063;-66
2023/09/06 09:39:41;;;;;;;3.83;1.63;;;37.30;76.30;;;;;;5076009;28;20066;-66
2023/09/06 09:42:11;;;;;;;3.35;1.75;;;37.20;75.50;;;;;;5078443;28;20059;-66
2023/09/06 09:44:38;;;;;;;2.65;1.30;;;37.50;75.10;;;;;;5096898;28;20051;-65
2023/09/06 09:47:12;;;;;;;4.28;1.52;;;37.50;75.00;;;;;;5096649;27;20048;-65
2023/09/06 09:49:41;;;;;;;3.60;1.67;;;37.40;74.70;;;;;;5079656;28;20062;-65
2023/09/06 09:52:12;;;;;;;2.47;1.60;;;37.60;74.90;;;;;;5097267;27;20044;-66
2023/09/06 09:54:41;;;;;;;2.10;1.30;;;37.60;74.80;;;;;;5116074;28;20054;-66
2023/09/06 09:57:09;;;;;;;4.13;1.75;;;38.00;74.10;;;;;;5078508;28;20127;-65
2023/09/06 09:59:38;;;;;;;2.20;1.52;;;38.00;74.00;;;;;;5096007;28;20498;-66
2023/09/06 10:02:06;;;;;;;2.83;1.52;;;37.90;73.70;;;;;;5077953;28;20056;-67
2023/09/06 10:04:37;;;;;;;4.20;1.60;;;38.10;73.40;;;;;;5096490;28;20044;-66
2023/09/06 10:07:07;;;;;;;2.92;1.42;;;38.00;73.00;;;;;;5096122;28;20080;-66
2023/09/06 10:09:38;;;;;;;5.93;1.58;;;38.20;73.60;;;;;;5077485;28;20045;-66
2023/09/06 10:12:08;;;;;;;3.63;1.75;;;38.10;72.20;;;;;;5096888;28;20059;-66
2023/09/06 10:14:36;;;;;;;4.65;1.58;;;38.00;72.20;;;;;;5096320;28;20109;-66
2023/09/06 10:17:04;;;;;;;3.03;1.55;;;38.20;71.80;;;;;;5077523;28;20045;-66
2023/09/06 10:19:31;;;;;;;3.63;1.38;;;37.90;71.40;;;;;;5101065;28;20449;-66
2023/09/06 10:22:01;;;;;;;4.78;1.80;;;38.20;72.20;;;;;;5077483;28;20521;-66
2023/09/06 10:24:33;;;;;;;4.90;1.35;;;38.30;71.40;;;;;;5077997;28;20052;-66
2023/09/06 10:27:01;;;;;;;3.13;1.40;;;38.40;71.30;;;;;;5112436;28;20502;-66
2023/09/06 10:29:30;;;;;;;2.72;1.50;;;38.60;71.10;;;;;;5114459;28;20054;-66
2023/09/06 10:32:00;;;;;;;;;;;38.50;70.20;;;;;;5113307;28;20055;-67
2023/09/06 10:34:27;;;;;;;2.63;1.40;;;38.00;70.10;;;;;;5113363;28;19919;-66
2023/09/06 10:36:56;;;;;;;2.35;1.55;;;38.10;70.90;;;;;;5112508;28;20036;-65
2023/09/06 10:39:26;;;;;;;2.10;1.33;;;38.40;70.70;;;;;;5102267;28;20415;-65
2023/09/06 10:42:15;;;;;;;2.63;1.45;;;38.70;69.50;;;;;;5092598;28;20058;-66
2023/09/06 10:45:11;;;;;;;3.72;1.42;;;38.30;69.40;;;;;;5091103;28;20055;-67
2023/09/06 10:47:38;;;;;;;3.65;1.30;;;38.40;69.90;;;;;;5101325;28;20097;-66
2023/09/06 10:50:11;;;;;;;3.65;1.60;;;38.20;70.30;;;;;;5104888;28;20391;-66
2023/09/06 10:52:43;;;;;;;2.97;1.40;;;38.20;69.80;;;;;;5101245;28;20055;-66
2023/09/06 10:55:18;;;;;;;4.78;1.33;;;38.20;70.20;;;;;;5104252;28;20043;-66
2023/09/06 10:58:06;;;;;;;4.38;1.50;;;38.40;70.00;;;;;;5095131;28;20496;-66
2023/09/06 11:00:34;;;;;;;2.95;1.52;;;38.60;69.30;;;;;;5093066;28;20040;-66
2023/09/06 11:03:32;;;;;;;3.13;1.48;;;38.40;69.30;;;;;;5092172;28;20048;-68
2023/09/06 11:05:59;;;;;;;2.33;1.48;;;38.70;69.20;;;;;;5050704;28;20048;-67
2023/09/06 11:08:30;;;;;;;2.50;1.35;;;39.00;69.60;;;;;;5099221;28;20052;-67
2023/09/06 11:11:04;;;;;;;3.85;1.10;;;39.20;68.80;;;;;;5092362;28;20052;-67
2023/09/06 11:13:32;;;;;;;2.67;1.40;;;39.00;68.50;;;;;;5094074;28;20129;-67
2023/09/06 11:16:00;;;;;;;2.55;1.40;;;39.20;68.30;;;;;;5101902;28;20093;-67
2023/09/06 11:18:28;;;;;;;2.42;1.48;;;39.30;68.10;;;;;;5092409;28;20052;-67
2023/09/06 11:20:55;;;;;;;2.13;1.30;;;39.40;68.00;;;;;;5092209;28;20573;-67
2023/09/06 11:23:23;;;;;;;4.78;1.35;;;39.10;67.20;;;;;;5093792;28;20048;-66
2023/09/06 11:25:58;;;;;;;5.85;1.40;;;39.20;67.30;;;;;;5094202;28;20093;-67
2023/09/06 11:28:30;;;;;;;2.40;1.50;;;39.40;67.30;;;;;;5093799;28;20124;-66
2023/09/06 11:31:00;;;;;;;3.08;1.17;;;39.60;67.70;;;;;;5092215;28;20055;-67
2023/09/06 11:33:31;;;;;;;2.88;1.40;;;39.30;67.70;;;;;;5075397;28;20044;-66
2023/09/06 11:36:03;;;;;;;3.63;1.45;;;39.40;68.20;;;;;;5084834;28;20442;-65
2023/09/06 11:38:35;;;;;;;3.60;1.40;;;39.30;68.40;;;;;;5102845;28;20104;-66
2023/09/06 11:41:07;;;;;;;5.18;1.73;;;39.60;68.50;;;;;;5110677;28;20083;-66
2023/09/06 11:43:39;;;;;;;3.40;1.70;;;39.90;68.30;;;;;;5110021;28;20069;-66
2023/09/06 11:46:08;;;;;;;4.32;1.40;;;39.70;67.60;;;;;;5093996;28;20055;-66
2023/09/06 11:48:35;;;;;;;1.90;1.33;;;39.50;67.30;;;;;;5092894;28;20052;-66
2023/09/06 11:51:08;;;;;;;4.10;1.80;;;39.40;67.30;;;;;;5093391;28;20045;-66
2023/09/06 11:53:40;;;;;;;3.20;1.55;;;39.50;67.50;;;;;;5093042;28;20408;-66
2023/09/06 11:56:11;;;;;;;2.70;1.20;;;39.60;67.80;;;;;;5093041;28;20081;-67
2023/09/06 11:58:45;;;;;;;3.75;1.25;;;39.70;67.50;;;;;;5092058;28;20431;-66
2023/09/06 12:01:19;;;;;;;3.17;1.48;;;39.90;67.50;;;;;;5090667;28;20067;-66
2023/09/06 12:03:47;;;;;;;5.00;1.60;;;39.90;67.40;;;;;;5092510;28;20051;-66
2023/09/06 12:06:14;;;;;;;4.05;1.50;;;39.60;67.40;;;;;;5095909;28;20407;-66
2023/09/06 12:08:41;;;;;;;4.47;1.40;;;39.90;67.70;;;;;;5092076;28;20046;-66
2023/09/06 12:11:11;;;;;;;2.88;1.30;;;39.80;67.40;;;;;;5076478;28;20044;-65
2023/09/06 12:13:39;;;;;;;3.92;1.48;;;39.80;66.90;;;;;;5076220;28;20454;-66
2023/09/06 12:16:09;;;;;;;3.38;1.42;;;40.00;67.10;;;;;;5075427;28;20079;-66
2023/09/06 12:18:37;;;;;;;2.33;1.48;;;39.90;66.50;;;;;;5099136;28;20403;-66
2023/09/06 12:21:05;;;;;;;4.93;1.47;;;39.80;67.10;;;;;;5092973;28;20059;-66
2023/09/06 12:23:33;;;;;;;2.57;1.30;;;40.20;67.00;;;;;;5107056;28;20054;-65
2023/09/06 12:26:01;;;;;;;2.83;1.50;;;39.80;66.60;;;;;;5092783;28;20504;-66
2023/09/06 12:28:28;;;;;;;5.60;1.65;;;40.00;66.50;;;;;;5091015;28;20044;-66
2023/09/06 12:31:00;;;;;;;3.90;1.40;;;40.20;66.80;;;;;;5093280;28;20050;-65
2023/09/06 12:33:28;;;;;;;2.15;1.40;;;40.50;66.40;;;;;;5074299;28;20082;-66
2023/09/06 12:35:59;;;;;;;3.05;1.27;;;40.20;65.70;;;;;;5092774;28;20040;-66
2023/09/06 12:38:26;;;;;;;3.55;1.42;;;40.00;65.90;;;;;;5093435;28;20044;-67
2023/09/06 12:40:53;;;;;;;4.00;1.45;;;39.70;65.90;;;;;;5077853;28;20052;-67
2023/09/06 12:43:21;;;;;;;2.30;1.30;;;39.80;66.20;;;;;;5075280;28;20055;-67
2023/09/06 12:45:48;;;;;;;2.17;1.17;;;39.80;66.30;;;;;;5093248;28;20147;-66
2023/09/06 12:48:16;;;;;;;2.75;1.40;;;40.10;66.40;;;;;;5075191;28;20102;-67
2023/09/06 12:50:44;;;;;;;5.32;1.15;;;40.10;66.50;;;;;;5076984;28;20052;-66